createdAt,value
2023-02-06T00:01:12.968Z,14.40
2023-02-06T00:03:39.552Z,11.85
2023-02-06T00:06:06.360Z,10.80
2023-02-06T00:08:34.426Z,12.02
2023-02-06T00:11:08.905Z,10.73
2023-02-06T00:13:36.156Z,11.23
2023-02-06T00:16:03.524Z,10.50
2023-02-06T00:18:30.245Z,9.88
2023-02-06T00:20:59.217Z,9.30
2023-02-06T00:23:25.825Z,10.27
2023-02-06T00:25:54.489Z,10.05
2023-02-06T00:28:21.051Z,8.63
2023-02-06T00:30:49.969Z,9.68
2023-02-06T00:33:16.596Z,10.02
2023-02-06T00:35:43.180Z,7.05
2023-02-06T00:38:12.836Z,11.30
2023-02-06T00:40:39.608Z,12.05
2023-02-06T00:43:06.237Z,9.07
2023-02-06T00:45:33.309Z,12.00
2023-02-06T00:48:01.078Z,10.38
2023-02-06T00:50:27.748Z,10.45
2023-02-06T00:52:54.316Z,9.45
2023-02-06T00:55:20.872Z,9.60
2023-02-06T00:57:47.526Z,10.85
2023-02-06T01:00:14.842Z,9.60
2023-02-06T01:02:43.857Z,8.52
2023-02-06T01:05:10.471Z,7.78
2023-02-06T01:07:39.376Z,10.65
2023-02-06T01:10:07.777Z,13.52
2023-02-06T01:12:36.142Z,10.82
2023-02-06T01:15:08.379Z,11.43
2023-02-06T01:17:35.150Z,10.60
2023-02-06T01:20:02.207Z,11.63
2023-02-06T01:22:28.957Z,9.07
2023-02-06T01:24:55.489Z,8.57
2023-02-06T01:27:22.040Z,10.82
2023-02-06T01:29:48.607Z,12.90
2023-02-06T01:32:15.181Z,9.43
2023-02-06T01:34:41.842Z,8.90
2023-02-06T01:37:08.365Z,11.10
2023-02-06T01:39:34.945Z,11.52
2023-02-06T01:42:02.179Z,11.77
2023-02-06T01:44:32.012Z,10.68
2023-02-06T01:46:59.131Z,9.93
2023-02-06T01:49:32.817Z,9.15
2023-02-06T01:52:02.541Z,13.32
2023-02-06T01:54:29.228Z,9.57
2023-02-06T01:57:01.812Z,8.80
2023-02-06T01:59:28.638Z,10.25
2023-02-06T02:01:55.539Z,11.13
2023-02-06T02:04:26.423Z,11.77
2023-02-06T02:07:06.466Z,8.90
2023-02-06T02:09:33.968Z,10.35
2023-02-06T02:12:00.816Z,11.25
2023-02-06T02:14:27.446Z,9.73
2023-02-06T02:17:15.737Z,10.60
2023-02-06T02:20:10.998Z,10.40
2023-02-06T02:23:06.801Z,9.43
2023-02-06T02:25:42.340Z,8.88
2023-02-06T02:28:27.182Z,10.68
2023-02-06T02:31:08.665Z,10.68
2023-02-06T02:33:35.275Z,9.80
2023-02-06T02:36:01.860Z,10.70
2023-02-06T02:38:37.398Z,8.80
2023-02-06T02:41:17.246Z,7.32
2023-02-06T02:44:05.348Z,9.55
2023-02-06T02:46:44.899Z,10.05
2023-02-06T02:49:15.773Z,10.25
2023-02-06T02:51:43.310Z,10.05
2023-02-06T02:54:10.156Z,9.52
2023-02-06T02:56:36.923Z,9.10
2023-02-06T02:59:09.396Z,9.20
2023-02-06T03:01:43.822Z,7.97
2023-02-06T03:04:23.009Z,11.50
2023-02-06T03:06:58.740Z,9.27
2023-02-06T03:09:40.433Z,11.20
2023-02-06T03:12:17.736Z,10.98
2023-02-06T03:15:20.427Z,9.57
2023-02-06T03:17:54.877Z,11.02
2023-02-06T03:20:23.469Z,13.13
2023-02-06T03:22:52.109Z,8.88
2023-02-06T03:25:38.796Z,10.65
2023-02-06T03:28:15.490Z,13.02
2023-02-06T03:30:45.364Z,10.63
2023-02-06T03:33:15.320Z,9.23
2023-02-06T03:35:42.386Z,11.60
2023-02-06T03:38:09.840Z,11.50
2023-02-06T03:40:39.322Z,11.65
2023-02-06T03:43:06.910Z,11.18
2023-02-06T03:45:44.440Z,12.20
2023-02-06T03:48:19.047Z,9.85
2023-02-06T03:50:50.308Z,9.90
2023-02-06T03:53:18.885Z,12.10
2023-02-06T03:55:47.743Z,12.70
2023-02-06T03:58:14.777Z,12.82
2023-02-06T04:00:44.198Z,12.05
2023-02-06T04:03:11.779Z,13.70
2023-02-06T04:05:38.700Z,12.75
2023-02-06T04:08:05.761Z,11.38
2023-02-06T04:10:32.842Z,10.98
2023-02-06T04:12:59.416Z,12.50
2023-02-06T04:15:26.077Z,12.07
2023-02-06T04:18:00.543Z,16.90
2023-02-06T04:20:28.567Z,13.02
2023-02-06T04:22:55.252Z,12.20
2023-02-06T04:25:21.880Z,12.57
2023-02-06T04:27:48.823Z,18.20
2023-02-06T04:30:18.292Z,17.48
2023-02-06T04:32:45.246Z,13.55
2023-02-06T04:35:11.764Z,14.32
2023-02-06T04:37:40.785Z,15.63
2023-02-06T04:40:07.565Z,13.48
2023-02-06T04:42:34.258Z,13.73
2023-02-06T04:45:00.843Z,14.85
2023-02-06T04:47:27.428Z,14.52
2023-02-06T04:49:53.972Z,13.70
2023-02-06T04:52:23.107Z,14.02
2023-02-06T04:54:49.624Z,15.95
2023-02-06T04:57:16.201Z,14.57
2023-02-06T04:59:42.787Z,13.38
2023-02-06T05:02:09.369Z,15.88
2023-02-06T05:04:35.992Z,15.13
2023-02-06T05:07:05.368Z,13.43
2023-02-06T05:09:32.099Z,14.93
2023-02-06T05:12:01.149Z,14.60
2023-02-06T05:14:27.845Z,18.25
2023-02-06T05:16:54.390Z,16.50
2023-02-06T05:19:21.014Z,17.63
2023-02-06T05:21:47.610Z,14.65
2023-02-06T05:24:14.238Z,15.05
2023-02-06T05:26:40.858Z,16.45
2023-02-06T05:29:07.782Z,16.00
2023-02-06T05:31:34.435Z,13.65
2023-02-06T05:34:01.062Z,16.27
2023-02-06T05:36:29.219Z,17.58
2023-02-06T05:38:55.971Z,13.68
2023-02-06T05:41:22.534Z,12.57
2023-02-06T05:43:49.116Z,14.18
2023-02-06T05:46:15.783Z,15.40
2023-02-06T05:48:42.479Z,15.23
2023-02-06T05:51:09.102Z,27.45
2023-02-06T05:53:35.712Z,59.47
2023-02-06T05:56:02.380Z,43.47
2023-02-06T05:58:29.071Z,45.83
2023-02-06T06:00:55.633Z,27.02
2023-02-06T06:03:22.453Z,23.65
2023-02-06T06:05:49.000Z,16.20
2023-02-06T06:08:15.865Z,16.75
2023-02-06T06:10:42.612Z,15.48
2023-02-06T06:13:09.146Z,14.13
2023-02-06T06:15:35.902Z,18.05
2023-02-06T06:18:02.712Z,15.13
2023-02-06T06:20:29.420Z,18.60
2023-02-06T06:22:55.987Z,15.48
2023-02-06T06:25:22.603Z,14.00
2023-02-06T06:27:49.212Z,14.73
2023-02-06T06:30:15.832Z,14.90
2023-02-06T06:32:42.407Z,15.45
2023-02-06T06:35:09.178Z,20.55
2023-02-06T06:37:35.735Z,19.42
2023-02-06T06:40:02.499Z,30.00
2023-02-06T06:42:29.191Z,37.03
2023-02-06T06:44:55.753Z,73.53
2023-02-06T06:47:22.295Z,241.80
2023-02-06T06:49:48.869Z,168.02
2023-02-06T06:52:24.368Z,143.00
2023-02-06T06:54:52.405Z,129.10
2023-02-06T06:57:19.728Z,95.57
2023-02-06T06:59:46.271Z,58.92
2023-02-06T07:02:13.047Z,51.35
2023-02-06T07:04:39.875Z,43.78
2023-02-06T07:07:06.548Z,31.05
2023-02-06T07:09:33.178Z,19.00
2023-02-06T07:11:59.761Z,14.70
2023-02-06T07:14:28.733Z,14.10
2023-02-06T07:16:56.310Z,20.02
2023-02-06T07:19:22.862Z,12.15
2023-02-06T07:21:49.460Z,18.05
2023-02-06T07:24:16.020Z,19.75
2023-02-06T07:26:43.369Z,18.67
2023-02-06T07:29:09.984Z,18.20
2023-02-06T07:31:36.629Z,20.95
2023-02-06T07:34:03.323Z,16.25
2023-02-06T07:36:30.218Z,18.13
2023-02-06T07:38:56.857Z,20.40
2023-02-06T07:41:23.578Z,19.73
2023-02-06T07:43:50.203Z,20.48
2023-02-06T07:46:16.953Z,21.30
2023-02-06T07:48:43.630Z,18.85
2023-02-06T07:51:10.391Z,19.30
2023-02-06T07:53:37.702Z,18.95
2023-02-06T07:56:17.752Z,26.85
2023-02-06T07:58:44.785Z,29.77
2023-02-06T08:01:11.407Z,27.38
2023-02-06T08:03:38.039Z,27.75
2023-02-06T08:06:09.669Z,22.63
2023-02-06T08:08:36.302Z,24.50
2023-02-06T08:11:11.245Z,24.92
2023-02-06T08:13:37.952Z,22.13
2023-02-06T08:16:10.315Z,25.70
2023-02-06T08:18:37.517Z,22.70
2023-02-06T08:21:06.402Z,24.23
2023-02-06T08:23:33.042Z,21.48
2023-02-06T08:26:07.730Z,25.08
2023-02-06T08:28:35.425Z,24.00
2023-02-06T08:31:19.778Z,24.58
2023-02-06T08:33:49.790Z,21.00
2023-02-06T08:36:18.481Z,18.02
2023-02-06T08:38:48.054Z,24.08
2023-02-06T08:41:44.676Z,20.38
2023-02-06T08:44:16.213Z,16.88
2023-02-06T08:46:46.920Z,15.30
2023-02-06T08:49:16.698Z,16.42
2023-02-06T08:51:43.495Z,15.63
2023-02-06T08:54:13.711Z,11.93
2023-02-06T08:56:42.474Z,10.60
2023-02-06T08:59:12.287Z,12.48
2023-02-06T09:01:39.527Z,12.15
2023-02-06T09:04:08.497Z,13.25
2023-02-06T09:06:36.627Z,10.50
2023-02-06T09:09:04.832Z,11.77
2023-02-06T09:11:31.511Z,11.30
2023-02-06T09:14:00.068Z,10.38
2023-02-06T09:16:28.426Z,12.27
2023-02-06T09:18:55.607Z,10.02
2023-02-06T09:21:24.862Z,11.82
2023-02-06T09:23:54.367Z,11.18
2023-02-06T09:26:24.066Z,11.13
2023-02-06T09:28:59.679Z,12.80
2023-02-06T09:31:30.737Z,13.60
2023-02-06T09:33:58.397Z,11.27
2023-02-06T09:36:24.871Z,10.38
2023-02-06T09:38:53.676Z,12.00
2023-02-06T09:41:41.884Z,12.65
2023-02-06T09:44:18.557Z,10.45
2023-02-06T09:46:54.650Z,10.48
2023-02-06T09:49:36.868Z,11.10
2023-02-06T09:52:34.433Z,14.27
2023-02-06T09:55:07.148Z,11.23
2023-02-06T09:57:58.932Z,12.97
2023-02-06T10:00:42.707Z,13.50
2023-02-06T10:03:32.915Z,12.32
2023-02-06T10:06:06.595Z,11.70
2023-02-06T10:11:10.991Z,8.02
2023-02-06T10:13:59.494Z,10.65
2023-02-06T10:16:52.339Z,12.00
2023-02-06T10:19:35.613Z,11.30
2023-02-06T10:22:10.034Z,9.18
2023-02-06T10:25:15.943Z,10.20
2023-02-06T10:27:44.304Z,12.18
2023-02-06T10:30:22.274Z,11.88
2023-02-06T10:33:01.711Z,13.05
2023-02-06T10:35:43.023Z,11.75
2023-02-06T10:38:27.340Z,12.18
2023-02-06T10:41:13.638Z,11.48
2023-02-06T10:43:49.833Z,11.10
2023-02-06T10:46:46.194Z,10.48
2023-02-06T10:49:24.018Z,8.98
2023-02-06T10:52:17.471Z,10.30
2023-02-06T10:54:54.444Z,11.07
2023-02-06T10:57:25.046Z,9.48
2023-02-06T10:59:55.554Z,10.48
2023-02-06T11:02:39.043Z,12.35
2023-02-06T11:05:10.276Z,10.75
2023-02-06T11:07:40.753Z,12.55
2023-02-06T11:10:12.093Z,10.07
2023-02-06T11:12:44.214Z,9.70
2023-02-06T11:15:34.660Z,14.63
2023-02-06T11:18:04.784Z,9.60
2023-02-06T11:20:37.971Z,10.90
2023-02-06T11:23:18.804Z,15.23
2023-02-06T11:25:48.853Z,12.52
2023-02-06T11:28:20.453Z,12.63
2023-02-06T11:30:59.404Z,14.45
2023-02-06T11:33:46.425Z,12.60
2023-02-06T11:36:22.666Z,12.90
2023-02-06T11:38:57.248Z,14.00
2023-02-06T11:41:23.688Z,11.00
2023-02-06T11:43:54.453Z,14.48
2023-02-06T11:46:26.275Z,12.02
2023-02-06T11:48:55.537Z,13.55
2023-02-06T11:51:25.795Z,15.70
2023-02-06T11:53:57.244Z,13.52
2023-02-06T11:56:24.991Z,12.52
2023-02-06T11:59:07.331Z,12.90
2023-02-06T12:01:45.589Z,13.07
2023-02-06T12:04:27.044Z,14.52
2023-02-06T12:07:24.446Z,11.65
2023-02-06T12:09:52.012Z,13.20
2023-02-06T12:12:28.192Z,11.75
2023-02-06T12:14:59.246Z,12.32
2023-02-06T12:17:32.554Z,13.30
2023-02-06T12:20:02.926Z,13.13
2023-02-06T12:22:35.164Z,15.65
2023-02-06T12:25:04.460Z,14.27
2023-02-06T12:27:39.079Z,16.48
2023-02-06T12:30:27.763Z,12.57
2023-02-06T12:33:02.003Z,16.33
2023-02-06T12:35:39.935Z,12.60
2023-02-06T12:38:16.468Z,14.60
2023-02-06T12:40:52.006Z,13.50
2023-02-06T12:43:19.655Z,16.88
2023-02-06T12:45:55.032Z,14.60
2023-02-06T12:48:25.997Z,16.17
2023-02-06T12:51:12.466Z,16.33
2023-02-06T12:53:53.204Z,17.45
2023-02-06T12:56:33.928Z,15.40
2023-02-06T12:59:09.530Z,11.82
2023-02-06T13:02:00.572Z,13.88
2023-02-06T13:04:31.732Z,13.45
2023-02-06T13:07:07.211Z,11.95
2023-02-06T13:10:05.888Z,13.27
2023-02-06T13:12:33.707Z,14.07
2023-02-06T13:15:20.160Z,14.75
2023-02-06T13:17:46.986Z,12.40
2023-02-06T13:20:19.194Z,11.48
2023-02-06T13:23:11.834Z,17.55
2023-02-06T13:25:38.582Z,11.73
2023-02-06T13:28:23.614Z,11.90
2023-02-06T13:31:07.190Z,11.90
2023-02-06T13:33:47.989Z,12.55
2023-02-06T13:36:26.445Z,13.73
2023-02-06T13:39:12.198Z,21.10
2023-02-06T13:41:42.495Z,11.45
2023-02-06T13:44:18.816Z,13.27
2023-02-06T13:47:06.228Z,14.25
2023-02-06T13:49:52.087Z,13.48
2023-02-06T13:52:58.257Z,12.25
2023-02-06T13:56:05.937Z,13.55
2023-02-06T13:58:37.399Z,16.25
2023-02-06T14:01:11.416Z,18.95
2023-02-06T14:03:43.023Z,11.80
2023-02-06T14:06:28.324Z,62.25
2023-02-06T14:09:33.073Z,50.30
2023-02-06T14:12:30.297Z,20.20
2023-02-06T14:15:12.634Z,19.55
2023-02-06T14:17:56.924Z,15.40
2023-02-06T14:20:32.693Z,17.38
2023-02-06T14:23:45.944Z,14.50
2023-02-06T14:26:49.990Z,13.35
2023-02-06T14:29:34.565Z,12.48
2023-02-06T14:32:22.477Z,14.15
2023-02-06T14:34:55.044Z,12.18
2023-02-06T14:37:36.722Z,11.98
2023-02-06T14:40:13.541Z,14.55
2023-02-06T14:42:43.244Z,15.02
2023-02-06T14:45:19.938Z,28.50
2023-02-06T14:47:46.664Z,25.75
2023-02-06T14:50:21.526Z,22.98
2023-02-06T14:52:52.678Z,18.60
2023-02-06T14:55:36.044Z,20.27
2023-02-06T14:58:04.370Z,17.50
2023-02-06T15:00:32.029Z,17.67
2023-02-06T15:03:26.722Z,14.73
2023-02-06T15:06:02.862Z,12.90
2023-02-06T15:08:30.236Z,14.23
2023-02-06T15:11:03.430Z,13.52
2023-02-06T15:13:36.269Z,15.75
2023-02-06T15:16:07.993Z,15.18
2023-02-06T15:18:35.781Z,13.63
2023-02-06T15:21:05.428Z,12.77
2023-02-06T15:23:49.625Z,12.95
2023-02-06T15:26:36.276Z,12.68
2023-02-06T15:29:04.999Z,18.20
2023-02-06T15:31:32.167Z,13.75
2023-02-06T15:34:00.767Z,19.83
2023-02-06T15:36:37.294Z,13.60
2023-02-06T15:39:07.671Z,13.45
2023-02-06T15:41:35.199Z,13.52
2023-02-06T15:44:06.598Z,12.40
2023-02-06T15:46:33.589Z,11.48
2023-02-06T15:49:00.194Z,12.77
2023-02-06T15:51:39.555Z,15.80
2023-02-06T15:54:17.867Z,10.65
2023-02-06T15:56:50.950Z,12.98
2023-02-06T15:59:25.209Z,14.88
2023-02-06T16:01:54.777Z,15.27
2023-02-06T16:04:24.126Z,16.98
2023-02-06T16:07:07.936Z,16.67
2023-02-06T16:09:42.887Z,14.18
2023-02-06T16:12:10.174Z,17.02
2023-02-06T16:14:39.217Z,15.52
2023-02-06T16:17:26.493Z,20.30
2023-02-06T16:20:04.774Z,17.45
2023-02-06T16:22:35.109Z,16.10
2023-02-06T16:25:19.803Z,19.80
2023-02-06T16:27:47.050Z,14.70
2023-02-06T16:30:37.408Z,13.55
2023-02-06T16:33:31.576Z,13.65
2023-02-06T16:35:58.042Z,15.90
2023-02-06T16:38:24.558Z,16.65
2023-02-06T16:40:51.242Z,16.17
2023-02-06T16:43:17.825Z,15.93
2023-02-06T16:45:44.448Z,19.98
2023-02-06T16:48:17.246Z,19.85
2023-02-06T16:50:45.876Z,18.38
2023-02-06T16:53:24.606Z,22.95
2023-02-06T16:55:54.777Z,31.63
2023-02-06T16:58:23.583Z,29.95
2023-02-06T17:00:51.011Z,35.70
2023-02-06T17:03:17.955Z,101.75
2023-02-06T17:05:46.082Z,46.17
2023-02-06T17:08:22.888Z,33.17
2023-02-06T17:10:49.669Z,27.83
2023-02-06T17:13:19.120Z,24.38
2023-02-06T17:15:49.163Z,45.47
2023-02-06T17:18:17.711Z,23.25
2023-02-06T17:20:46.802Z,31.75
2023-02-06T17:23:14.304Z,18.05
2023-02-06T17:25:44.488Z,15.10
2023-02-06T17:28:14.978Z,14.88
2023-02-06T17:30:41.977Z,19.05
2023-02-06T17:33:08.513Z,17.85
2023-02-06T17:35:36.812Z,16.92
2023-02-06T17:38:05.017Z,16.30
2023-02-06T17:40:33.922Z,28.83
2023-02-06T17:43:04.499Z,40.95
2023-02-06T17:45:31.659Z,30.13
2023-02-06T17:47:58.302Z,27.73
2023-02-06T17:50:26.577Z,28.38
2023-02-06T17:52:56.150Z,37.08
2023-02-06T17:55:24.025Z,57.67
2023-02-06T17:57:50.713Z,48.78
2023-02-06T18:00:23.270Z,52.70
2023-02-06T18:02:50.945Z,32.45
2023-02-06T18:05:17.855Z,52.33
2023-02-06T18:07:44.532Z,98.53
2023-02-06T18:10:12.691Z,69.13
2023-02-06T18:12:41.416Z,43.42
2023-02-06T18:15:08.565Z,38.60
2023-02-06T18:17:35.008Z,23.75
2023-02-06T18:20:04.306Z,18.50
2023-02-06T18:22:33.357Z,16.45
2023-02-06T18:25:00.975Z,19.15
2023-02-06T18:27:32.809Z,22.42
2023-02-06T18:29:59.525Z,24.90
2023-02-06T18:32:26.821Z,38.15
2023-02-06T18:34:55.608Z,48.63
2023-02-06T18:37:24.356Z,26.90
2023-02-06T18:39:50.888Z,29.65
2023-02-06T18:42:35.868Z,23.00
2023-02-06T18:45:04.148Z,23.80
2023-02-06T18:47:30.867Z,24.00
2023-02-06T18:49:59.801Z,17.95
2023-02-06T18:52:29.067Z,16.13
2023-02-06T18:54:55.676Z,54.25
2023-02-06T18:57:22.193Z,43.47
2023-02-06T18:59:48.787Z,21.05
2023-02-06T19:02:15.604Z,40.25
2023-02-06T19:04:42.622Z,37.92
2023-02-06T19:07:11.165Z,26.98
2023-02-06T19:09:38.190Z,28.48
2023-02-06T19:12:04.906Z,30.55
2023-02-06T19:14:31.423Z,29.02
2023-02-06T19:16:58.527Z,28.40
2023-02-06T19:19:25.210Z,18.08
2023-02-06T19:21:51.877Z,23.48
2023-02-06T19:24:18.814Z,32.92
2023-02-06T19:26:45.957Z,37.60
2023-02-06T19:29:34.366Z,27.65
2023-02-06T19:32:02.363Z,23.95
2023-02-06T19:34:28.975Z,21.50
2023-02-06T19:36:55.591Z,14.60
2023-02-06T19:39:22.154Z,22.50
2023-02-06T19:41:48.715Z,24.00
2023-02-06T19:44:15.416Z,29.48
2023-02-06T19:46:42.006Z,47.92
2023-02-06T19:49:08.863Z,73.18
2023-02-06T19:51:42.233Z,46.60
2023-02-06T19:54:11.190Z,39.75
2023-02-06T19:56:41.724Z,50.10
2023-02-06T19:59:18.293Z,39.08
2023-02-06T20:01:51.337Z,54.47
2023-02-06T20:04:19.883Z,23.20
2023-02-06T20:06:46.599Z,15.05
2023-02-06T20:09:15.514Z,19.52
2023-02-06T20:11:42.490Z,17.33
2023-02-06T20:14:09.651Z,16.35
2023-02-06T20:16:41.195Z,18.83
2023-02-06T20:19:13.151Z,16.48
2023-02-06T20:21:43.023Z,17.63
2023-02-06T20:24:13.212Z,15.88
2023-02-06T20:26:43.177Z,16.55
2023-02-06T20:29:18.716Z,17.45
2023-02-06T20:31:45.607Z,21.23
2023-02-06T20:34:13.591Z,14.40
2023-02-06T20:36:41.868Z,17.38
2023-02-06T20:39:12.523Z,18.63
2023-02-06T20:41:39.496Z,16.35
2023-02-06T20:44:10.435Z,19.17
2023-02-06T20:46:37.088Z,14.43
2023-02-06T20:49:12.570Z,26.85
2023-02-06T20:51:39.274Z,54.42
2023-02-06T20:54:08.175Z,37.63
2023-02-06T20:56:34.830Z,27.27
2023-02-06T20:59:01.839Z,26.55
2023-02-06T21:01:30.896Z,26.08
2023-02-06T21:04:00.163Z,21.60
2023-02-06T21:06:28.091Z,19.73
2023-02-06T21:08:59.948Z,20.50
2023-02-06T21:11:34.109Z,20.48
2023-02-06T21:14:03.177Z,20.08
2023-02-06T21:16:34.198Z,23.13
2023-02-06T21:19:03.114Z,18.88
2023-02-06T21:21:29.788Z,23.63
2023-02-06T21:23:58.719Z,19.92
2023-02-06T21:26:27.332Z,19.98
2023-02-06T21:28:54.214Z,22.23
2023-02-06T21:31:33.306Z,19.50
2023-02-06T21:34:07.016Z,18.48
2023-02-06T21:36:35.714Z,18.40
2023-02-06T21:39:03.540Z,17.90
2023-02-06T21:41:30.249Z,20.98
2023-02-06T21:43:56.834Z,28.50
2023-02-06T21:46:26.133Z,28.85
2023-02-06T21:48:53.796Z,24.63
2023-02-06T21:51:21.428Z,24.95
2023-02-06T21:53:48.002Z,20.92
2023-02-06T21:56:19.884Z,22.40
2023-02-06T21:58:47.056Z,18.90
2023-02-06T22:01:19.061Z,21.92
2023-02-06T22:03:49.559Z,26.15
2023-02-06T22:06:17.001Z,27.42
2023-02-06T22:08:48.030Z,27.23
2023-02-06T22:11:16.325Z,25.65
2023-02-06T22:13:43.486Z,30.98
2023-02-06T22:16:12.566Z,37.30
2023-02-06T22:18:39.884Z,33.50
2023-02-06T22:21:12.134Z,30.70
2023-02-06T22:23:39.427Z,26.00
2023-02-06T22:26:08.439Z,30.65
2023-02-06T22:28:35.107Z,24.55
2023-02-06T22:31:11.337Z,22.65
2023-02-06T22:33:37.923Z,21.67
2023-02-06T22:36:06.279Z,19.60
2023-02-06T22:38:35.780Z,19.63
2023-02-06T22:41:05.301Z,20.60
2023-02-06T22:43:33.913Z,21.05
2023-02-06T22:46:00.524Z,18.95
2023-02-06T22:48:27.707Z,19.20
2023-02-06T22:50:54.794Z,20.58
2023-02-06T22:53:32.691Z,23.05
2023-02-06T22:56:19.852Z,22.40
2023-02-06T22:58:49.437Z,19.83
2023-02-06T23:01:20.656Z,22.10
2023-02-06T23:03:50.708Z,22.55
2023-02-06T23:06:17.437Z,18.80
2023-02-06T23:08:44.583Z,19.52
2023-02-06T23:11:12.456Z,20.73
2023-02-06T23:13:39.880Z,23.40
2023-02-06T23:16:07.192Z,19.10
2023-02-06T23:18:34.358Z,22.05
2023-02-06T23:21:06.634Z,23.10
2023-02-06T23:23:33.390Z,25.98
2023-02-06T23:26:00.343Z,27.85
2023-02-06T23:28:29.212Z,18.90
2023-02-06T23:30:55.836Z,23.88
2023-02-06T23:33:23.626Z,21.52
2023-02-06T23:35:50.452Z,27.60
2023-02-06T23:38:18.152Z,20.55
2023-02-06T23:40:44.871Z,25.23
2023-02-06T23:43:11.489Z,30.55
2023-02-06T23:45:39.786Z,25.65
2023-02-06T23:48:06.659Z,25.63
2023-02-06T23:50:33.249Z,27.98
2023-02-06T23:52:59.813Z,26.83
2023-02-06T23:55:28.403Z,29.60
2023-02-06T23:57:54.919Z,27.63
